Bonaria — ICUS — position and weather

sailwx.info

Track history (hours):
 
Tides and Currents Weather Stations Pressure Air Temp Water Temp Dewpoint Dewpoint Depression Visibility Wind Speed Wind Dir Waves Ship Positions

Bonaria

Last reported at 2015-Apr-20 20:33 UTC. Time now 2015-Apr-21 06:31 UTC.
Position N 40°55' E 009°32'.

Length 213 m; draft 6.8 m.

Type: Passenger vessel. MMSI: 247322400.

Date/timePositionNaut miles runAvg speedWind from/ knotsBaromVisibWave heightAir tempDewpointWater temp
2015-Apr-20 20:33N 40°55' E 009°32'0 0.0
2015-Apr-20 19:33N 40°55' E 009°32'0 0.0
2015-Apr-20 18:33N 40°55' E 009°32'0 0.0
2015-Apr-20 17:33N 40°55' E 009°32'0 0.0
2015-Apr-20 16:32N 40°55' E 009°32'0 0.0
2015-Apr-20 15:32N 40°55' E 009°32'0 0.0
2015-Apr-20 14:33N 40°55' E 009°32'0 0.0
2015-Apr-20 13:33N 40°55' E 009°32'0 0.0
2015-Apr-20 12:33N 40°55' E 009°32'0 0.0
2015-Apr-20 11:33N 40°55' E 009°32'0 0.0
2015-Apr-20 10:33N 40°55' E 009°32'0 0.0
2015-Apr-20 09:33N 40°55' E 009°32'0 0.0
2015-Apr-20 08:33N 40°55' E 009°32'0 0.0
2015-Apr-20 07:32N 40°55' E 009°32'0 0.0
2015-Apr-20 06:33N 40°55' E 009°32'0 0.0
2015-Apr-20 05:32N 40°55' E 009°32'0 0.0
2015-Apr-20 04:31N 40°55' E 009°32'116 3.3
2015-Apr-18 17:32N 38°59' E 009°33'2020.4
2015-Apr-18 16:33N 39°09' E 009°10'5 4.9
2015-Apr-18 15:32N 39°13' E 009°06'0 0.0
2015-Apr-18 14:33N 39°13' E 009°06'0 0.0
2015-Apr-18 13:33N 39°13' E 009°06'0 0.0
2015-Apr-18 12:33N 39°13' E 009°06'0 0.0
2015-Apr-18 11:33N 39°13' E 009°06'0 0.0
2015-Apr-18 10:33N 39°13' E 009°06'0 0.0
2015-Apr-18 09:33N 39°13' E 009°06'0 0.0
2015-Apr-18 08:33N 39°13' E 009°06'0 0.3
2015-Apr-18 07:32N 39°12' E 009°07'1716.7
2015-Apr-18 06:32N 39°02' E 009°24'113 3.3
2015-Apr-16 20:33N 40°55' E 009°31'0 0.0
2015-Apr-16 19:32N 40°55' E 009°31'0 0.0
2015-Apr-16 18:33N 40°55' E 009°31'0 0.0
2015-Apr-16 17:33N 40°55' E 009°31'0 0.0
2015-Apr-16 16:32N 40°55' E 009°31'0 0.0
2015-Apr-16 15:33N 40°55' E 009°31'0 0.0
2015-Apr-16 14:33N 40°55' E 009°31'0 0.0
2015-Apr-16 13:33N 40°55' E 009°31'0 0.0
2015-Apr-16 12:32N 40°55' E 009°31'0 0.0
2015-Apr-16 11:33N 40°55' E 009°31'0 0.0
2015-Apr-16 10:33N 40°55' E 009°31'0 0.0
2015-Apr-16 09:33N 40°55' E 009°31'0 0.0
2015-Apr-16 08:33N 40°55' E 009°31'0 0.0
2015-Apr-16 07:33N 40°55' E 009°31'8 1.7
2015-Apr-16 03:03N 40°58' E 009°41'1319.9
2015-Apr-16 02:22N 41°06' E 009°55'2120.0
2015-Apr-16 01:20N 41°18' E 010°17'2120.1
2015-Apr-16 00:19N 41°31' E 010°39'2320.2
2015-Apr-15 23:10N 41°46' E 011°02'85 3.2
2015-Apr-14 20:33N 40°55' E 009°31'0 0.0
2015-Apr-14 19:33N 40°55' E 009°31'0 0.0
2015-Apr-14 18:33N 40°55' E 009°31'0 0.0
2015-Apr-14 17:33N 40°55' E 009°31'0 0.0
2015-Apr-14 16:34N 40°55' E 009°31'0 0.0
2015-Apr-14 15:33N 40°55' E 009°31'0 0.0
2015-Apr-14 14:34N 40°55' E 009°31'0 0.0
2015-Apr-14 13:34N 40°55' E 009°31'0 0.0
2015-Apr-14 12:34N 40°55' E 009°31'0 0.0
2015-Apr-14 11:34N 40°55' E 009°31'0 0.0
2015-Apr-14 10:32N 40°55' E 009°31'0 0.0
2015-Apr-14 09:32N 40°55' E 009°31'0 0.0
2015-Apr-14 08:33N 40°55' E 009°31'0 0.0
2015-Apr-14 07:33N 40°55' E 009°31'0 0.0
2015-Apr-14 06:33N 40°55' E 009°31'0 0.0
2015-Apr-14 05:33N 40°55' E 009°31'0 0.0
2015-Apr-14 04:33N 40°55' E 009°31'2 2.2
2015-Apr-14 03:33N 40°55' E 009°34'2 0.1
2015-Apr-12 20:33N 40°55' E 009°31'0 0.0
2015-Apr-12 19:32N 40°55' E 009°31'0 0.0
2015-Apr-12 18:32N 40°55' E 009°32'0 0.0
2015-Apr-12 17:30N 40°55' E 009°31'0 0.0
2015-Apr-12 16:33N 40°55' E 009°31'0 0.0
2015-Apr-12 15:32N 40°55' E 009°31'0 0.0
2015-Apr-12 14:33N 40°55' E 009°31'0 0.0
2015-Apr-12 13:33N 40°55' E 009°32'0 0.0
2015-Apr-12 12:33N 40°55' E 009°32'0 0.0
2015-Apr-12 11:33N 40°55' E 009°31'0 0.0
2015-Apr-12 10:33N 40°55' E 009°31'0 0.0
2015-Apr-12 09:33N 40°55' E 009°31'0 0.0
2015-Apr-12 08:33N 40°55' E 009°32'0 0.0
2015-Apr-12 07:30N 40°55' E 009°31'0 0.0
2015-Apr-12 06:33N 40°55' E 009°31'0 0.0
2015-Apr-12 05:31N 40°55' E 009°31'0 0.0
2015-Apr-12 04:33N 40°55' E 009°31'0 0.0
2015-Apr-10 20:33N 40°55' E 009°31'  
Track history (hours):
 
Tides and Currents Weather Stations Pressure Air Temp Water Temp Dewpoint Dewpoint Depression Visibility Wind Speed Wind Dir Waves Ship Positions

Bonaria

Last reported at 2015-Apr-20 20:33 UTC. Time now 2015-Apr-21 06:31 UTC.
Position N 40°55' E 009°32'.

Length 213 m; draft 6.8 m.

Type: Passenger vessel. MMSI: 247322400.

Date/timePositionNaut miles runAvg speedWind from/ knotsBaromVisibWave heightAir tempDewpointWater temp
2015-Apr-20 20:33N 40°55' E 009°32'0 0.0
2015-Apr-20 19:33N 40°55' E 009°32'0 0.0
2015-Apr-20 18:33N 40°55' E 009°32'0 0.0
2015-Apr-20 17:33N 40°55' E 009°32'0 0.0
2015-Apr-20 16:32N 40°55' E 009°32'0 0.0
2015-Apr-20 15:32N 40°55' E 009°32'0 0.0
2015-Apr-20 14:33N 40°55' E 009°32'0 0.0
2015-Apr-20 13:33N 40°55' E 009°32'0 0.0
2015-Apr-20 12:33N 40°55' E 009°32'0 0.0
2015-Apr-20 11:33N 40°55' E 009°32'0 0.0
2015-Apr-20 10:33N 40°55' E 009°32'0 0.0
2015-Apr-20 09:33N 40°55' E 009°32'0 0.0
2015-Apr-20 08:33N 40°55' E 009°32'0 0.0
2015-Apr-20 07:32N 40°55' E 009°32'0 0.0
2015-Apr-20 06:33N 40°55' E 009°32'0 0.0
2015-Apr-20 05:32N 40°55' E 009°32'0 0.0
2015-Apr-20 04:31N 40°55' E 009°32'116 3.3
2015-Apr-18 17:32N 38°59' E 009°33'2020.4
2015-Apr-18 16:33N 39°09' E 009°10'5 4.9
2015-Apr-18 15:32N 39°13' E 009°06'0 0.0
2015-Apr-18 14:33N 39°13' E 009°06'0 0.0
2015-Apr-18 13:33N 39°13' E 009°06'0 0.0
2015-Apr-18 12:33N 39°13' E 009°06'0 0.0
2015-Apr-18 11:33N 39°13' E 009°06'0 0.0
2015-Apr-18 10:33N 39°13' E 009°06'0 0.0
2015-Apr-18 09:33N 39°13' E 009°06'0 0.0
2015-Apr-18 08:33N 39°13' E 009°06'0 0.3
2015-Apr-18 07:32N 39°12' E 009°07'1716.7
2015-Apr-18 06:32N 39°02' E 009°24'113 3.3
2015-Apr-16 20:33N 40°55' E 009°31'0 0.0
2015-Apr-16 19:32N 40°55' E 009°31'0 0.0
2015-Apr-16 18:33N 40°55' E 009°31'0 0.0
2015-Apr-16 17:33N 40°55' E 009°31'0 0.0
2015-Apr-16 16:32N 40°55' E 009°31'0 0.0
2015-Apr-16 15:33N 40°55' E 009°31'0 0.0
2015-Apr-16 14:33N 40°55' E 009°31'0 0.0
2015-Apr-16 13:33N 40°55' E 009°31'0 0.0
2015-Apr-16 12:32N 40°55' E 009°31'0 0.0
2015-Apr-16 11:33N 40°55' E 009°31'0 0.0
2015-Apr-16 10:33N 40°55' E 009°31'0 0.0
2015-Apr-16 09:33N 40°55' E 009°31'0 0.0
2015-Apr-16 08:33N 40°55' E 009°31'0 0.0
2015-Apr-16 07:33N 40°55' E 009°31'8 1.7
2015-Apr-16 03:03N 40°58' E 009°41'1319.9
2015-Apr-16 02:22N 41°06' E 009°55'2120.0
2015-Apr-16 01:20N 41°18' E 010°17'2120.1
2015-Apr-16 00:19N 41°31' E 010°39'2320.2
2015-Apr-15 23:10N 41°46' E 011°02'85 3.2
2015-Apr-14 20:33N 40°55' E 009°31'0 0.0
2015-Apr-14 19:33N 40°55' E 009°31'0 0.0
2015-Apr-14 18:33N 40°55' E 009°31'0 0.0
2015-Apr-14 17:33N 40°55' E 009°31'0 0.0
2015-Apr-14 16:34N 40°55' E 009°31'0 0.0
2015-Apr-14 15:33N 40°55' E 009°31'0 0.0
2015-Apr-14 14:34N 40°55' E 009°31'0 0.0
2015-Apr-14 13:34N 40°55' E 009°31'0 0.0
2015-Apr-14 12:34N 40°55' E 009°31'0 0.0
2015-Apr-14 11:34N 40°55' E 009°31'0 0.0
2015-Apr-14 10:32N 40°55' E 009°31'0 0.0
2015-Apr-14 09:32N 40°55' E 009°31'0 0.0
2015-Apr-14 08:33N 40°55' E 009°31'0 0.0
2015-Apr-14 07:33N 40°55' E 009°31'0 0.0
2015-Apr-14 06:33N 40°55' E 009°31'0 0.0
2015-Apr-14 05:33N 40°55' E 009°31'0 0.0
2015-Apr-14 04:33N 40°55' E 009°31'2 2.2
2015-Apr-14 03:33N 40°55' E 009°34'2 0.1
2015-Apr-12 20:33N 40°55' E 009°31'0 0.0
2015-Apr-12 19:32N 40°55' E 009°31'0 0.0
2015-Apr-12 18:32N 40°55' E 009°32'0 0.0
2015-Apr-12 17:30N 40°55' E 009°31'0 0.0
2015-Apr-12 16:33N 40°55' E 009°31'0 0.0
2015-Apr-12 15:32N 40°55' E 009°31'0 0.0
2015-Apr-12 14:33N 40°55' E 009°31'0 0.0
2015-Apr-12 13:33N 40°55' E 009°32'0 0.0
2015-Apr-12 12:33N 40°55' E 009°32'0 0.0
2015-Apr-12 11:33N 40°55' E 009°31'0 0.0
2015-Apr-12 10:33N 40°55' E 009°31'0 0.0
2015-Apr-12 09:33N 40°55' E 009°31'0 0.0
2015-Apr-12 08:33N 40°55' E 009°32'0 0.0
2015-Apr-12 07:30N 40°55' E 009°31'0 0.0
2015-Apr-12 06:33N 40°55' E 009°31'0 0.0
2015-Apr-12 05:31N 40°55' E 009°31'0 0.0
2015-Apr-12 04:33N 40°55' E 009°31'0 0.0
2015-Apr-10 20:33N 40°55' E 009°31'  

Dump ship's entire track history